Time;durP1;ratioP1;P1;durP2;ratioP2;P2;SDS_P1;SDS_P2;PMS_P1;PMS_P2;Temp;Humidity;BMP_temperature;BMP_pressure;BME280_temperature;BME280_humidity;BME280_pressure;Samples;Min_cycle;Max_cycle;Signal;HPM_P1;HPM_P2
2022/01/26 00:07:11;;;;;;;27.13;13.52;;;0.90;99.90;;;;;;4992692;28;20045;-77
2022/01/26 00:09:36;;;;;;;27.35;14.88;;;0.80;99.90;;;;;;4992776;28;20105;-79
2022/01/26 00:12:02;;;;;;;24.67;13.95;;;0.90;99.90;;;;;;4992682;28;20016;-78
2022/01/26 00:14:28;;;;;;;24.90;14.50;;;0.80;99.90;;;;;;4992525;28;20391;-78
2022/01/26 00:16:54;;;;;;;24.77;14.80;;;0.90;99.90;;;;;;4992459;28;20026;-79
2022/01/26 00:19:27;;;;;;;26.00;14.48;;;0.90;99.90;;;;;;4975335;28;20011;-78
2022/01/26 00:21:54;;;;;;;28.63;15.05;;;0.90;99.90;;;;;;4991435;28;20041;-78
2022/01/26 00:24:38;;;;;;;35.58;18.30;;;0.80;99.90;;;;;;4993185;28;20065;-79
2022/01/26 00:27:36;;;;;;;31.35;16.73;;;0.80;99.90;;;;;;4975117;28;20038;-79
2022/01/26 00:31:59;;;;;;;26.00;14.95;;;0.90;99.90;;;;;;4995691;28;20026;-78
2022/01/26 00:33:07;;;;;;;25.48;14.13;;;0.80;99.90;;;;;;4995214;28;20050;-78
2022/01/26 00:38:34;;;;;;;29.00;15.73;;;0.90;99.90;;;;;;4995578;28;20088;-78
2022/01/26 00:41:06;;;;;;;22.45;13.35;;;0.80;99.90;;;;;;4978007;28;20521;-78
2022/01/26 00:43:33;;;;;;;27.23;15.52;;;0.80;99.90;;;;;;4995303;28;20050;-78
2022/01/26 00:46:01;;;;;;;25.50;14.10;;;0.80;99.90;;;;;;4977885;28;20030;-79
2022/01/26 00:48:31;;;;;;;27.98;14.40;;;0.80;99.90;;;;;;4993810;28;20492;-78
2022/01/26 00:51:00;;;;;;;25.10;14.85;;;0.80;99.90;;;;;;4995395;28;20029;-76
2022/01/26 00:53:32;;;;;;;24.13;12.90;;;0.80;99.90;;;;;;4995302;28;20019;-78
2022/01/26 00:55:58;;;;;;;23.83;13.30;;;0.80;99.90;;;;;;4995208;28;20026;-78
2022/01/26 00:58:25;;;;;;;24.02;13.45;;;0.80;99.90;;;;;;4995109;28;20073;-80
2022/01/26 01:00:51;;;;;;;25.75;15.02;;;0.80;99.90;;;;;;4994808;28;20034;-78
2022/01/26 01:03:18;;;;;;;22.85;13.57;;;0.80;99.90;;;;;;4993809;28;20034;-78
2022/01/26 01:05:58;;;;;;;27.10;14.63;;;0.80;99.90;;;;;;4993672;28;20378;-78
2022/01/26 01:08:25;;;;;;;24.20;13.80;;;0.80;99.90;;;;;;4977302;28;20474;-78
2022/01/26 01:10:53;;;;;;;25.80;13.38;;;0.90;99.90;;;;;;4993853;28;20022;-77
2022/01/26 01:13:23;;;;;;;25.58;12.93;;;0.80;99.90;;;;;;4994952;28;20022;-78
2022/01/26 01:15:50;;;;;;;21.88;13.32;;;0.80;99.90;;;;;;4993705;28;20120;-79
2022/01/26 01:18:24;;;;;;;24.65;14.52;;;0.80;99.90;;;;;;4994431;28;20021;-78
2022/01/26 01:31:40;;;;;;;23.45;12.95;;;0.80;99.90;;;;;;4994746;28;20026;-79
2022/01/26 01:34:05;;;;;;;24.42;13.38;;;0.80;99.90;;;;;;4994473;28;20038;-79
2022/01/26 01:36:33;;;;;;;22.75;12.50;;;0.80;99.90;;;;;;4994243;28;20035;-79
2022/01/26 01:38:58;;;;;;;24.90;14.35;;;0.80;99.90;;;;;;4993916;28;20113;-79
2022/01/26 01:41:24;;;;;;;24.48;13.35;;;0.80;99.90;;;;;;4992516;28;20134;-79
2022/01/26 01:43:50;;;;;;;29.10;15.65;;;0.80;99.90;;;;;;4976748;28;20454;-79
2022/01/26 01:46:15;;;;;;;26.77;14.35;;;0.70;99.90;;;;;;4994153;28;20029;-78
2022/01/26 01:48:41;;;;;;;29.13;16.42;;;0.80;99.90;;;;;;4992639;28;20070;-79
2022/01/26 01:51:10;;;;;;;39.20;20.58;;;0.80;99.90;;;;;;4992667;28;20023;-79
2022/01/26 01:53:41;;;;;;;31.17;17.17;;;0.80;99.90;;;;;;4993734;28;20486;-78
2022/01/26 01:56:10;;;;;;;28.20;16.63;;;0.80;99.90;;;;;;4993948;28;20022;-79
2022/01/26 01:58:37;;;;;;;32.10;15.48;;;0.80;99.90;;;;;;4992461;28;20029;-78
2022/01/26 02:01:04;;;;;;;33.13;16.15;;;0.80;99.90;;;;;;4993890;28;20020;-79
2022/01/26 02:03:30;;;;;;;28.63;16.38;;;0.80;99.90;;;;;;4993820;28;20019;-79
2022/01/26 02:05:56;;;;;;;35.88;18.38;;;0.80;99.90;;;;;;4993891;28;20110;-78
2022/01/26 02:08:21;;;;;;;29.80;17.10;;;0.90;99.90;;;;;;4993450;28;20530;-78
2022/01/26 02:10:47;;;;;;;32.42;18.05;;;0.90;99.90;;;;;;4993690;28;20026;-79
2022/01/26 02:13:20;;;;;;;28.58;16.05;;;0.90;99.90;;;;;;4993676;28;20611;-77
2022/01/26 02:16:06;;;;;;;32.90;17.67;;;0.90;99.90;;;;;;4976039;28;20117;-79
2022/01/26 02:55:54;;;;;;;30.55;16.75;;;1.00;99.90;;;;;;4993108;28;20368;-78
2022/01/26 03:03:26;;;;;;;32.75;18.45;;;1.00;99.90;;;;;;4993126;28;20070;-78
2022/01/26 03:06:06;;;;;;;27.13;15.93;;;1.00;99.90;;;;;;4992807;28;20540;-76
2022/01/26 03:08:36;;;;;;;35.85;17.42;;;0.90;99.90;;;;;;4992885;28;20042;-78
2022/01/26 03:11:11;;;;;;;28.20;16.65;;;1.00;99.90;;;;;;4993126;28;20029;-78
2022/01/26 03:13:52;;;;;;;30.90;17.02;;;0.90;99.90;;;;;;4996105;28;20106;-81
2022/01/26 03:16:28;;;;;;;28.15;17.25;;;0.90;99.90;;;;;;4998249;28;20092;-80
2022/01/26 03:19:03;;;;;;;33.13;17.30;;;1.00;99.90;;;;;;4996834;28;20382;-79
2022/01/26 03:21:45;;;;;;;26.27;16.08;;;1.00;99.90;;;;;;4994789;28;20092;-79
2022/01/26 03:29:53;;;;;;;29.77;16.70;;;1.00;99.90;;;;;;4993373;28;20117;-78
2022/01/26 03:35:28;;;;;;;28.55;15.90;;;1.00;99.90;;;;;;4973880;28;20038;-78
2022/01/26 03:37:55;;;;;;;28.88;16.23;;;1.00;99.90;;;;;;4993370;28;20097;-77
2022/01/26 03:40:30;;;;;;;27.45;15.90;;;1.00;99.90;;;;;;4992955;28;20038;-80
2022/01/26 03:42:57;;;;;;;27.50;15.98;;;1.00;99.90;;;;;;4993269;28;20045;-79
2022/01/26 03:45:25;;;;;;;29.63;16.42;;;1.00;99.90;;;;;;4992983;28;20096;-78
2022/01/26 03:47:51;;;;;;;30.23;16.45;;;1.00;99.90;;;;;;4992277;28;20034;-77
2022/01/26 03:50:16;;;;;;;30.08;16.85;;;1.00;99.90;;;;;;4974757;28;20386;-78
2022/01/26 03:52:42;;;;;;;28.00;16.15;;;1.10;99.90;;;;;;4991129;28;20026;-78
2022/01/26 03:55:08;;;;;;;29.48;16.15;;;1.20;99.90;;;;;;4992388;28;20139;-78
2022/01/26 03:57:34;;;;;;;33.17;16.83;;;1.10;99.90;;;;;;4990945;28;20034;-79
2022/01/26 03:59:59;;;;;;;29.80;16.90;;;1.10;99.90;;;;;;4992373;28;20097;-78
2022/01/26 04:02:25;;;;;;;31.60;16.65;;;1.10;99.90;;;;;;4992460;28;20378;-80
2022/01/26 04:04:57;;;;;;;27.50;16.08;;;1.00;99.90;;;;;;4994758;28;20014;-78
2022/01/26 04:07:23;;;;;;;30.73;17.42;;;1.00;99.90;;;;;;4996026;28;20042;-78
2022/01/26 04:09:48;;;;;;;30.00;15.80;;;1.00;99.90;;;;;;4995991;28;20371;-77
2022/01/26 04:12:14;;;;;;;29.15;17.35;;;1.10;99.90;;;;;;4994681;28;20458;-77
2022/01/26 04:14:43;;;;;;;29.38;16.55;;;1.10;99.90;;;;;;4978565;28;20030;-78
2022/01/26 04:17:09;;;;;;;29.67;16.15;;;1.00;99.90;;;;;;4978316;28;20394;-78
2022/01/26 04:19:37;;;;;;;30.85;17.20;;;1.10;99.90;;;;;;4995910;28;20018;-78
2022/01/26 04:22:18;;;;;;;29.10;15.05;;;1.10;99.90;;;;;;4995691;28;20457;-78
2022/01/26 04:24:51;;;;;;;28.02;16.73;;;1.00;99.90;;;;;;4994264;28;20030;-79
2022/01/26 04:29:43;;;;;;;26.25;15.60;;;1.00;99.90;;;;;;4995731;28;20133;-77
2022/01/26 04:32:09;;;;;;;30.35;17.25;;;1.10;99.90;;;;;;4995726;28;20030;-79
2022/01/26 04:34:36;;;;;;;29.45;16.48;;;1.10;99.90;;;;;;4978082;28;20030;-75
2022/01/26 04:37:24;;;;;;;30.35;16.70;;;1.10;99.90;;;;;;4995239;28;20026;-76
2022/01/26 04:40:01;;;;;;;25.73;15.63;;;1.10;99.90;;;;;;4995290;28;20053;-77
2022/01/26 04:45:02;;;;;;;33.80;17.52;;;1.10;99.90;;;;;;4995457;28;20062;-76
2022/01/26 04:47:28;;;;;;;27.50;16.27;;;1.00;99.90;;;;;;4995316;28;20026;-78
2022/01/26 04:49:53;;;;;;;28.73;16.17;;;1.10;99.90;;;;;;4995305;28;20536;-78
2022/01/26 04:52:19;;;;;;;30.60;17.33;;;1.10;99.90;;;;;;4995371;28;20061;-79
2022/01/26 04:54:45;;;;;;;33.58;19.90;;;1.00;99.90;;;;;;4995360;28;20385;-79
2022/01/26 04:57:10;;;;;;;32.55;19.52;;;1.00;99.90;;;;;;4995727;28;20398;-78
2022/01/26 04:59:36;;;;;;;29.45;18.42;;;1.00;99.90;;;;;;4995382;28;20129;-78
2022/01/26 05:02:02;;;;;;;32.67;19.23;;;1.00;99.90;;;;;;4995772;28;20370;-79
2022/01/26 05:04:27;;;;;;;29.40;18.00;;;1.00;99.90;;;;;;4994233;28;20034;-78
2022/01/26 05:06:53;;;;;;;28.63;16.92;;;1.10;99.90;;;;;;4977804;28;20019;-77
2022/01/26 05:09:20;;;;;;;29.73;15.50;;;1.10;99.90;;;;;;4994104;28;20039;-78
2022/01/26 05:11:49;;;;;;;24.65;15.35;;;1.00;99.90;;;;;;4995222;28;20080;-78
2022/01/26 05:14:15;;;;;;;26.98;15.80;;;1.10;99.90;;;;;;4978026;28;20038;-78
2022/01/26 05:16:40;;;;;;;25.92;16.60;;;1.00;99.90;;;;;;4995248;28;20029;-79
2022/01/26 05:19:06;;;;;;;29.10;14.90;;;1.00;99.90;;;;;;4995364;28;20030;-80
2022/01/26 05:21:32;;;;;;;26.83;15.70;;;1.10;99.90;;;;;;4977619;28;20026;-76
2022/01/26 05:23:58;;;;;;;24.83;14.07;;;1.00;99.90;;;;;;4995148;28;20465;-79
2022/01/26 05:26:24;;;;;;;25.55;14.88;;;1.00;99.90;;;;;;4994952;28;20023;-77
2022/01/26 05:28:50;;;;;;;22.98;14.18;;;1.10;99.90;;;;;;4993983;28;20034;-79
2022/01/26 05:31:16;;;;;;;23.77;14.80;;;1.00;99.90;;;;;;4995197;28;20028;-78
2022/01/26 05:33:42;;;;;;;26.63;15.43;;;1.00;99.90;;;;;;4995102;28;20502;-79
2022/01/26 05:36:08;;;;;;;23.55;13.55;;;1.00;99.90;;;;;;4977269;28;20026;-77
2022/01/26 05:38:34;;;;;;;26.60;15.80;;;1.00;99.90;;;;;;4994915;28;20411;-78
2022/01/26 05:41:01;;;;;;;23.33;15.02;;;1.00;99.90;;;;;;4989817;28;20498;-77
2022/01/26 05:43:34;;;;;;;23.20;14.80;;;0.90;99.90;;;;;;4989841;28;20030;-77
2022/01/26 05:46:09;;;;;;;27.65;15.77;;;0.90;99.90;;;;;;4989858;28;20034;-78
2022/01/26 05:48:38;;;;;;;25.58;15.35;;;1.00;99.90;;;;;;4973640;28;20149;-77
2022/01/26 05:51:06;;;;;;;24.95;14.40;;;1.00;99.90;;;;;;4974598;28;20019;-78
2022/01/26 05:53:33;;;;;;;26.58;15.88;;;1.00;99.90;;;;;;4974718;28;20486;-78
2022/01/26 05:55:59;;;;;;;26.38;14.95;;;1.00;99.90;;;;;;4974538;28;20034;-78
2022/01/26 05:58:25;;;;;;;23.63;14.05;;;1.00;99.90;;;;;;4974686;28;20395;-78
2022/01/26 06:00:51;;;;;;;30.05;16.77;;;1.00;99.90;;;;;;4989442;28;20034;-78
2022/01/26 06:03:16;;;;;;;24.90;14.98;;;1.00;99.90;;;;;;4974365;28;20161;-78
2022/01/26 06:05:42;;;;;;;27.83;15.65;;;1.10;99.90;;;;;;4974350;28;20133;-79
2022/01/26 06:08:08;;;;;;;30.15;16.30;;;1.00;99.90;;;;;;4974203;28;20118;-78
2022/01/26 06:10:34;;;;;;;25.02;15.10;;;1.00;99.90;;;;;;4989188;28;20487;-78
2022/01/26 06:13:00;;;;;;;28.35;14.35;;;1.00;99.90;;;;;;4989152;28;20088;-79
2022/01/26 06:15:26;;;;;;;27.30;15.93;;;1.00;99.90;;;;;;4989296;28;20505;-78
2022/01/26 06:17:51;;;;;;;31.25;18.70;;;1.00;99.90;;;;;;4988880;28;20030;-78
2022/01/26 06:20:17;;;;;;;30.48;15.45;;;1.10;99.90;;;;;;4988991;28;20030;-76
2022/01/26 06:22:43;;;;;;;23.65;14.52;;;1.00;99.90;;;;;;4974229;28;20031;-78
2022/01/26 06:25:09;;;;;;;25.98;15.05;;;1.00;99.90;;;;;;4988900;28;20023;-79
2022/01/26 06:27:36;;;;;;;24.38;14.60;;;1.00;99.90;;;;;;4973510;28;20041;-79
2022/01/26 06:30:06;;;;;;;26.45;15.32;;;1.00;99.90;;;;;;4974122;28;20023;-79
2022/01/26 06:32:32;;;;;;;25.95;14.93;;;1.00;99.90;;;;;;4973990;28;20023;-78
2022/01/26 06:34:58;;;;;;;25.45;15.25;;;1.00;99.90;;;;;;4989048;28;20030;-78
2022/01/26 06:37:24;;;;;;;26.67;15.32;;;1.00;99.90;;;;;;4973690;28;20094;-80
2022/01/26 06:39:50;;;;;;;25.50;15.55;;;1.00;99.90;;;;;;4980892;28;20054;-75
2022/01/26 06:42:20;;;;;;;29.85;15.07;;;1.00;99.90;;;;;;4994026;28;20031;-74
2022/01/26 06:44:56;;;;;;;25.55;14.65;;;1.00;99.90;;;;;;4993070;28;20025;-76
2022/01/26 06:49:53;;;;;;;24.17;15.07;;;1.40;99.90;;;;;;4993298;28;20502;-76
2022/01/26 06:52:19;;;;;;;27.98;16.15;;;1.40;99.90;;;;;;4993308;28;20061;-78
2022/01/26 06:54:45;;;;;;;25.50;14.40;;;1.30;99.90;;;;;;4993144;28;20022;-74
2022/01/26 06:57:11;;;;;;;22.90;14.18;;;1.30;99.90;;;;;;4993039;28;20022;-73
2022/01/26 06:59:36;;;;;;;28.95;15.38;;;1.20;99.90;;;;;;4992815;28;20081;-74
2022/01/26 07:02:02;;;;;;;28.52;16.27;;;1.20;99.90;;;;;;4991650;28;20053;-74
2022/01/26 07:04:28;;;;;;;26.48;15.38;;;1.20;99.90;;;;;;4992999;28;20394;-73
2022/01/26 07:06:54;;;;;;;26.17;15.13;;;1.20;99.90;;;;;;4975461;28;20015;-73
2022/01/26 07:09:20;;;;;;;25.45;14.32;;;1.10;99.90;;;;;;4992914;28;20185;-74
2022/01/26 07:11:46;;;;;;;27.20;14.98;;;1.20;99.90;;;;;;4993078;28;20076;-74
2022/01/26 07:14:22;;;;;;;25.13;14.57;;;1.20;99.90;;;;;;4992878;28;20030;-74
2022/01/26 07:22:13;;;;;;;27.10;16.15;;;1.10;99.90;;;;;;4992832;28;20027;-74
2022/01/26 07:24:38;;;;;;;26.08;14.57;;;1.10;99.90;;;;;;4992831;28;20037;-74
2022/01/26 07:27:05;;;;;;;23.77;15.02;;;1.20;99.90;;;;;;4992665;28;20037;-74
2022/01/26 07:29:32;;;;;;;27.20;14.98;;;1.10;99.90;;;;;;4992951;28;20037;-74
2022/01/26 07:31:58;;;;;;;26.55;14.90;;;1.20;99.90;;;;;;4992815;28;20027;-74
2022/01/26 07:34:24;;;;;;;31.42;16.80;;;1.20;99.90;;;;;;4992605;28;20097;-74
2022/01/26 07:36:54;;;;;;;29.95;17.02;;;1.20;99.90;;;;;;4991251;28;20097;-75
2022/01/26 07:39:30;;;;;;;36.15;19.23;;;1.20;99.90;;;;;;4995478;28;20039;-73
2022/01/26 07:41:57;;;;;;;30.00;16.33;;;1.20;99.90;;;;;;4996722;28;20109;-73
2022/01/26 07:44:22;;;;;;;31.65;17.35;;;1.30;99.90;;;;;;4996655;28;20061;-74
2022/01/26 07:46:48;;;;;;;29.65;17.00;;;1.30;99.90;;;;;;4995324;28;20045;-73
2022/01/26 07:49:14;;;;;;;35.67;19.25;;;1.40;99.90;;;;;;4979031;28;20038;-73
2022/01/26 07:51:40;;;;;;;34.70;18.33;;;1.40;99.90;;;;;;4996578;28;20026;-74
2022/01/26 07:54:05;;;;;;;29.50;17.08;;;1.40;99.90;;;;;;4996357;28;20161;-74
2022/01/26 07:56:32;;;;;;;33.78;18.30;;;1.40;99.90;;;;;;4996264;28;20026;-74
2022/01/26 07:58:58;;;;;;;29.48;18.05;;;1.50;99.90;;;;;;4978907;28;20027;-74
2022/01/26 08:01:24;;;;;;;25.70;15.73;;;1.50;99.90;;;;;;4996058;28;20109;-74
2022/01/26 08:03:49;;;;;;;23.98;14.45;;;1.60;99.90;;;;;;4995878;28;20093;-74
2022/01/26 08:06:17;;;;;;;27.02;15.50;;;1.60;99.90;;;;;;4995883;28;20104;-74
2022/01/26 08:08:43;;;;;;;26.83;15.60;;;1.60;99.90;;;;;;4995821;28;20125;-73
2022/01/26 08:11:09;;;;;;;26.08;14.70;;;1.70;99.90;;;;;;4995963;28;20101;-74
2022/01/26 08:13:35;;;;;;;27.85;14.23;;;1.70;99.90;;;;;;4996307;28;20029;-74
2022/01/26 08:16:01;;;;;;;27.23;14.18;;;1.80;99.90;;;;;;4996211;28;20080;-74
2022/01/26 08:18:27;;;;;;;21.02;13.48;;;1.70;99.90;;;;;;4996201;28;20030;-75
2022/01/26 08:20:53;;;;;;;21.73;13.02;;;1.80;99.90;;;;;;4979848;28;20532;-78
2022/01/26 08:23:21;;;;;;;22.95;12.73;;;1.80;99.90;;;;;;4998330;28;20072;-77
2022/01/26 08:25:50;;;;;;;22.63;13.32;;;1.80;99.90;;;;;;4998356;28;20018;-76
2022/01/26 08:28:22;;;;;;;26.02;14.48;;;1.90;99.90;;;;;;4998258;28;20088;-78
2022/01/26 08:30:48;;;;;;;21.60;14.02;;;1.90;99.90;;;;;;4979018;28;20069;-76
2022/01/26 08:33:14;;;;;;;20.90;12.82;;;2.00;99.90;;;;;;4996268;28;20046;-76
2022/01/26 08:35:41;;;;;;;26.75;14.32;;;2.10;99.90;;;;;;4995044;28;20536;-76
2022/01/26 08:38:07;;;;;;;20.52;12.35;;;2.10;99.90;;;;;;4996115;28;20018;-76
2022/01/26 08:40:33;;;;;;;21.05;12.10;;;2.20;99.90;;;;;;4978268;28;20047;-80
2022/01/26 08:43:00;;;;;;;22.13;13.25;;;2.30;99.90;;;;;;4995966;28;20429;-75
2022/01/26 08:45:26;;;;;;;21.90;12.32;;;2.20;99.90;;;;;;4995820;28;20374;-75
2022/01/26 08:47:52;;;;;;;22.95;12.82;;;2.30;99.90;;;;;;4995681;28;20031;-75
2022/01/26 08:50:18;;;;;;;20.25;13.52;;;2.30;99.90;;;;;;4995303;28;20022;-75
2022/01/26 08:52:44;;;;;;;23.30;13.57;;;2.30;99.90;;;;;;4995933;28;20038;-76
2022/01/26 08:55:10;;;;;;;23.48;12.73;;;2.40;99.90;;;;;;4994516;28;20054;-75
2022/01/26 08:57:37;;;;;;;21.63;13.48;;;2.40;99.90;;;;;;4995587;28;20026;-76
2022/01/26 09:00:05;;;;;;;19.85;12.02;;;2.50;99.90;;;;;;4978037;28;20042;-77
2022/01/26 09:02:31;;;;;;;22.83;13.20;;;2.50;99.90;;;;;;4995356;28;20106;-76
2022/01/26 09:04:56;;;;;;;20.77;12.23;;;2.60;99.90;;;;;;4994788;28;20081;-76
2022/01/26 09:07:22;;;;;;;18.25;12.10;;;2.60;99.90;;;;;;4994897;28;20522;-78
2022/01/26 09:09:48;;;;;;;20.52;12.50;;;2.70;99.90;;;;;;4994980;28;20138;-78
2022/01/26 09:12:19;;;;;;;18.23;11.68;;;2.70;99.90;;;;;;4993985;28;20072;-78
2022/01/26 09:14:46;;;;;;;22.38;12.45;;;2.70;99.90;;;;;;4995322;28;20113;-77
2022/01/26 09:17:13;;;;;;;26.42;12.05;;;2.70;99.90;;;;;;4994964;28;20478;-79
2022/01/26 09:19:42;;;;;;;21.48;13.18;;;2.90;99.90;;;;;;4993920;28;20076;-78
2022/01/26 09:22:10;;;;;;;20.65;10.95;;;2.90;99.90;;;;;;4995120;28;20022;-76
2022/01/26 09:24:38;;;;;;;19.00;10.70;;;3.00;99.90;;;;;;4995206;28;20053;-78
2022/01/26 09:27:06;;;;;;;20.55;12.00;;;3.00;99.90;;;;;;4994823;28;20044;-78
2022/01/26 09:29:32;;;;;;;17.88;10.30;;;3.40;99.90;;;;;;4994817;28;20088;-75
2022/01/26 09:31:59;;;;;;;25.27;13.52;;;3.50;99.90;;;;;;4977288;28;20086;-75
2022/01/26 09:34:28;;;;;;;20.95;12.77;;;3.60;99.90;;;;;;4994629;28;20466;-73
2022/01/26 09:36:54;;;;;;;19.45;10.15;;;3.60;99.90;;;;;;4994476;28;20038;-74
2022/01/26 09:39:21;;;;;;;13.75;9.55;;;3.50;99.90;;;;;;4994396;28;20042;-73
2022/01/26 09:41:49;;;;;;;17.40;10.73;;;3.50;99.90;;;;;;4994491;28;20121;-74
2022/01/26 09:44:16;;;;;;;19.85;9.77;;;3.40;99.90;;;;;;4976987;28;20022;-73
2022/01/26 09:46:42;;;;;;;19.65;11.77;;;3.30;99.90;;;;;;4994342;28;20023;-74
2022/01/26 09:49:08;;;;;;;17.35;10.35;;;3.40;99.90;;;;;;4994439;28;20038;-74
2022/01/26 09:51:41;;;;;;;14.45;8.70;;;3.40;99.90;;;;;;4994303;28;20042;-74
2022/01/26 09:54:11;;;;;;;15.45;9.10;;;3.30;99.90;;;;;;4994261;28;20034;-75
2022/01/26 09:56:37;;;;;;;15.88;9.15;;;3.30;99.90;;;;;;4994262;28;20197;-74
2022/01/26 09:59:03;;;;;;;17.25;9.35;;;3.30;99.90;;;;;;4994359;28;20043;-74
2022/01/26 10:01:42;;;;;;;13.73;8.07;;;3.40;99.90;;;;;;4993518;28;20034;-73
2022/01/26 10:04:19;;;;;;;61.05;27.27;;;3.40;99.90;;;;;;4994120;28;20997;-75
2022/01/26 10:06:48;;;;;;;33.95;17.98;;;3.50;99.90;;;;;;4994313;28;20470;-76
2022/01/26 10:17:44;;;;;;;16.10;8.32;;;3.60;99.90;;;;;;4993938;28;20029;-75
2022/01/26 10:20:15;;;;;;;15.10;8.48;;;3.90;99.90;;;;;;4976059;28;20026;-80
2022/01/26 10:22:42;;;;;;;13.23;8.20;;;4.20;99.90;;;;;;4976039;28;20441;-80
2022/01/26 10:25:19;;;;;;;14.30;7.82;;;4.30;99.90;;;;;;4992080;28;20056;-76
2022/01/26 10:27:48;;;;;;;13.75;8.15;;;4.30;99.90;;;;;;4975794;28;20109;-77
2022/01/26 10:30:16;;;;;;;14.05;9.30;;;4.30;99.90;;;;;;4993271;28;20026;-74
2022/01/26 10:32:45;;;;;;;16.00;9.43;;;4.30;99.40;;;;;;4992007;28;20049;-75
2022/01/26 10:35:11;;;;;;;15.25;9.07;;;4.30;99.90;;;;;;4993690;28;20105;-74
2022/01/26 10:37:47;;;;;;;15.50;8.95;;;4.20;99.70;;;;;;5009893;28;20122;-75
2022/01/26 10:40:18;;;;;;;14.02;8.77;;;4.20;99.90;;;;;;5012977;28;20046;-76
2022/01/26 10:43:06;;;;;;;16.35;10.07;;;4.20;99.90;;;;;;5011862;28;20022;-76
2022/01/26 10:48:24;;;;;;;15.57;10.52;;;4.30;99.90;;;;;;5012749;28;20065;-80
2022/01/26 10:53:45;;;;;;;14.68;8.93;;;4.30;98.90;;;;;;5012852;28;20048;-79
2022/01/26 10:56:11;;;;;;;18.00;10.55;;;4.20;98.90;;;;;;4995155;28;20026;-78
2022/01/26 10:58:37;;;;;;;17.17;11.43;;;4.20;99.60;;;;;;5011340;28;20359;-80
2022/01/26 11:01:04;;;;;;;29.80;12.48;;;4.10;99.10;;;;;;5012671;28;20029;-79
2022/01/26 11:03:30;;;;;;;15.63;9.68;;;4.10;99.80;;;;;;5012695;28;20036;-79
2022/01/26 11:05:56;;;;;;;18.58;11.55;;;4.00;99.50;;;;;;5011413;28;20030;-79
2022/01/26 11:08:25;;;;;;;18.02;10.85;;;4.10;99.40;;;;;;4994778;28;20080;-79
2022/01/26 11:10:51;;;;;;;21.98;9.70;;;4.00;99.60;;;;;;5012451;28;20101;-78
2022/01/26 11:13:33;;;;;;;16.05;9.35;;;4.20;99.90;;;;;;5011561;28;20458;-80
2022/01/26 11:16:16;;;;;;;17.08;9.85;;;4.30;99.90;;;;;;5012010;28;20419;-80
2022/01/26 11:18:50;;;;;;;15.75;9.63;;;4.40;99.60;;;;;;5011254;28;20040;-80
2022/01/26 11:21:33;;;;;;;16.42;10.05;;;4.40;98.80;;;;;;5010999;28;20669;-79
2022/01/26 11:24:11;;;;;;;15.43;9.60;;;4.40;99.50;;;;;;5011102;28;20030;-80
2022/01/26 11:26:38;;;;;;;21.50;11.43;;;4.50;99.40;;;;;;5012201;28;20116;-79
2022/01/26 11:29:32;;;;;;;16.88;10.45;;;4.50;98.70;;;;;;5011277;28;20489;-80
2022/01/26 11:32:11;;;;;;;20.40;10.05;;;4.40;98.50;;;;;;5011499;28;20381;-80
2022/01/26 11:34:38;;;;;;;18.92;11.48;;;4.40;98.40;;;;;;5010969;28;20038;-80
2022/01/26 11:37:08;;;;;;;20.17;10.07;;;4.40;98.90;;;;;;5011003;28;20141;-80
2022/01/26 11:45:06;;;;;;;16.13;9.70;;;4.40;98.90;;;;;;5012305;28;20062;-78
2022/01/26 11:47:33;;;;;;;24.52;10.30;;;4.50;98.40;;;;;;5010789;28;20030;-79
2022/01/26 11:50:04;;;;;;;17.25;10.30;;;4.40;98.10;;;;;;5012552;28;20163;-82
2022/01/26 11:52:35;;;;;;;17.55;11.10;;;4.30;98.50;;;;;;5014218;28;20022;-86
2022/01/26 11:55:03;;;;;;;21.02;10.68;;;4.30;98.50;;;;;;5012952;28;20083;-83
2022/01/26 11:57:46;;;;;;;19.38;11.23;;;4.30;98.40;;;;;;5013100;28;20038;-84
2022/01/26 12:00:18;;;;;;;19.65;11.10;;;4.40;98.30;;;;;;5012838;28;20516;-84
2022/01/26 12:05:16;;;;;;;16.52;11.07;;;4.50;99.30;;;;;;5014084;28;20030;-83
2022/01/26 12:08:00;;;;;;;18.08;10.32;;;4.50;98.70;;;;;;5010987;28;20030;-75
2022/01/26 12:10:32;;;;;;;14.85;9.40;;;4.50;97.90;;;;;;4992255;28;20029;-81
2022/01/26 12:13:04;;;;;;;20.67;11.00;;;4.50;98.30;;;;;;4993513;28;20026;-83
2022/01/26 12:15:39;;;;;;;21.35;11.80;;;4.50;98.10;;;;;;4992690;28;20030;-78
2022/01/26 12:35:08;;;;;;;16.93;10.27;;;4.30;97.00;;;;;;4998206;28;20042;-86
2022/01/26 12:43:12;;;;;;;17.85;11.23;;;4.30;98.00;;;;;;4997154;28;20037;-80
2022/01/26 12:45:38;;;;;;;15.32;9.70;;;4.30;97.40;;;;;;4994677;28;20026;-81
2022/01/26 12:48:09;;;;;;;17.90;10.68;;;4.20;97.50;;;;;;4995048;28;20430;-82
2022/01/26 12:50:36;;;;;;;18.50;10.40;;;4.20;97.80;;;;;;4994446;28;20485;-78
2022/01/26 12:53:03;;;;;;;16.23;10.52;;;4.20;98.50;;;;;;4994697;28;20506;-80
2022/01/26 12:55:34;;;;;;;17.65;10.00;;;4.30;98.30;;;;;;4995418;28;20023;-81
2022/01/26 12:58:01;;;;;;;16.58;9.25;;;4.30;97.20;;;;;;4995111;28;20054;-80
2022/01/26 13:00:40;;;;;;;17.48;11.10;;;4.20;97.30;;;;;;4994788;28;20584;-81
2022/01/26 13:03:14;;;;;;;18.42;10.18;;;4.20;97.50;;;;;;4995511;28;20019;-84
2022/01/26 13:05:41;;;;;;;16.15;9.77;;;4.20;97.10;;;;;;4994932;28;20383;-78
2022/01/26 13:08:10;;;;;;;14.35;8.93;;;4.20;97.60;;;;;;4994080;28;20462;-80
2022/01/26 13:10:37;;;;;;;15.05;10.43;;;4.20;98.20;;;;;;4978830;28;20117;-82
2022/01/26 13:13:13;;;;;;;18.80;11.70;;;4.20;98.00;;;;;;4995953;28;20030;-80
2022/01/26 13:15:46;;;;;;;16.38;10.68;;;4.20;98.00;;;;;;4996383;28;20030;-85
2022/01/26 13:18:33;;;;;;;18.33;9.73;;;4.20;97.40;;;;;;4994646;28;20040;-79
2022/01/26 13:23:39;;;;;;;18.98;12.13;;;4.20;97.30;;;;;;4998844;28;20033;-79
2022/01/26 13:26:23;;;;;;;17.45;10.70;;;4.20;97.70;;;;;;4999208;28;20030;-78
2022/01/26 13:29:10;;;;;;;21.27;11.65;;;4.20;97.50;;;;;;4996248;28;20065;-74
2022/01/26 13:32:11;;;;;;;16.35;10.48;;;4.20;98.00;;;;;;4977254;28;20029;-84
2022/01/26 13:34:46;;;;;;;18.08;11.15;;;4.20;98.00;;;;;;4996705;28;20034;-83
2022/01/26 13:43:26;;;;;;;18.10;10.80;;;4.20;98.40;;;;;;4995280;28;20394;-82
2022/01/26 13:48:34;;;;;;;19.67;11.55;;;4.10;98.40;;;;;;4995582;28;20039;-81
2022/01/26 13:51:58;;;;;;;20.67;11.07;;;4.00;98.30;;;;;;4995801;28;20022;-82
2022/01/26 13:54:22;;;;;;;25.58;11.65;;;4.00;98.90;;;;;;4990047;28;20042;-82
2022/01/26 13:59:22;;;;;;;19.30;11.60;;;3.90;98.90;;;;;;4995453;28;20030;-82
2022/01/26 14:01:50;;;;;;;21.52;12.13;;;3.90;99.10;;;;;;4977949;28;20384;-82
2022/01/26 14:04:17;;;;;;;21.58;11.73;;;3.90;98.80;;;;;;4994334;28;20018;-82
2022/01/26 14:06:43;;;;;;;22.55;12.55;;;3.80;99.00;;;;;;4995426;28;20026;-79
2022/01/26 14:09:09;;;;;;;24.85;12.85;;;3.90;99.00;;;;;;4993530;28;20113;-79
2022/01/26 14:11:35;;;;;;;26.13;11.80;;;3.80;99.00;;;;;;4977972;28;20462;-80
2022/01/26 14:14:02;;;;;;;21.38;11.30;;;3.80;99.30;;;;;;4993717;28;20026;-82
2022/01/26 14:16:33;;;;;;;21.23;12.20;;;3.80;99.10;;;;;;4994506;28;20113;-80
2022/01/26 14:24:26;;;;;;;20.98;12.48;;;4.00;99.40;;;;;;4995534;28;20040;-83
2022/01/26 14:26:56;;;;;;;22.38;11.52;;;3.90;99.30;;;;;;4994006;28;20033;-79
2022/01/26 14:32:26;;;;;;;22.27;12.25;;;3.80;99.00;;;;;;4973829;28;20034;-82
2022/01/26 14:51:10;;;;;;;21.95;12.35;;;3.60;99.90;;;;;;4994635;28;20601;-79
2022/01/26 15:11:01;;;;;;;18.05;11.75;;;3.20;99.90;;;;;;4993050;28;20077;-79
2022/01/26 15:53:08;;;;;;;20.33;10.38;;;2.60;99.90;;;;;;4992946;28;20030;-79
2022/01/26 16:06:43;;;;;;;19.08;9.75;;;3.30;99.90;;;;;;4997081;28;20045;-80
2022/01/26 16:17:43;;;;;;;27.40;14.93;;;2.80;99.90;;;;;;4996601;28;20072;-79
2022/01/26 18:17:59;;;;;;;32.65;17.55;;;0.20;99.90;;;;;;5013453;28;20051;-79
2022/01/26 18:51:35;;;;;;;39.65;19.15;;;0.40;99.90;;;;;;5012853;28;20168;-74
2022/01/26 18:54:01;;;;;;;36.33;19.45;;;0.30;99.90;;;;;;5012551;28;20022;-78
2022/01/26 18:56:28;;;;;;;37.25;19.45;;;0.40;99.90;;;;;;4995208;28;20014;-77
2022/01/26 18:58:53;;;;;;;37.97;20.13;;;0.30;99.90;;;;;;4995203;28;20052;-74
2022/01/26 19:01:19;;;;;;;42.63;22.13;;;0.30;99.90;;;;;;5012814;28;20458;-75
2022/01/26 19:03:45;;;;;;;38.95;20.40;;;0.30;99.90;;;;;;5012745;28;20025;-74
2022/01/26 19:06:11;;;;;;;43.75;22.25;;;0.30;99.90;;;;;;5012746;28;20036;-75
2022/01/26 19:08:39;;;;;;;50.85;25.40;;;0.30;99.90;;;;;;5012458;28;20116;-74
2022/01/26 19:11:07;;;;;;;52.80;26.00;;;0.10;99.90;;;;;;5012466;28;20022;-73
2022/01/26 19:13:33;;;;;;;50.85;25.42;;;0.20;99.90;;;;;;5012529;28;20021;-75
2022/01/26 19:16:05;;;;;;;47.60;24.48;;;0.20;99.90;;;;;;5012144;28;20029;-73
2022/01/26 19:24:31;;;;;;;50.05;23.70;;;0.20;99.90;;;;;;4996336;28;20073;-74
2022/01/26 19:27:01;;;;;;;38.08;19.38;;;0.20;99.90;;;;;;5012395;28;20054;-77